Time;durP1;ratioP1;P1;durP2;ratioP2;P2;SDS_P1;SDS_P2;PMS_P1;PMS_P2;Temp;Humidity;BMP_temperature;BMP_pressure;BME280_temperature;BME280_humidity;BME280_pressure;Samples;Min_cycle;Max_cycle;Signal;HPM_P1;HPM_P2
2021/09/30 00:00:27;;;;;;;0.30;0.30;;;10.10;92.90;;;;;;2044138;29;20091;-96
2021/09/30 00:01:28;;;;;;;1.35;0.30;;;10.10;92.80;;;;;;2044397;29;20035;-95
2021/09/30 00:02:29;;;;;;;1.50;0.50;;;10.10;92.80;;;;;;2028221;29;20127;-96
2021/09/30 00:03:30;;;;;;;1.80;0.43;;;10.10;92.80;;;;;;2041481;29;20043;-95
2021/09/30 00:04:31;;;;;;;3.33;0.55;;;10.10;92.90;;;;;;2035962;29;20470;-96
2021/09/30 00:05:32;;;;;;;2.28;0.50;;;10.10;92.90;;;;;;2028864;29;20442;-96
2021/09/30 00:06:32;;;;;;;1.30;0.47;;;10.10;92.90;;;;;;2035521;29;20032;-95
2021/09/30 00:07:33;;;;;;;1.85;0.55;;;10.10;92.90;;;;;;2043374;29;20043;-95
2021/09/30 00:08:34;;;;;;;1.73;0.50;;;10.10;92.90;;;;;;2027723;29;20032;-95
2021/09/30 00:09:36;;;;;;;0.80;0.40;;;10.10;92.90;;;;;;2027936;29;20047;-96
2021/09/30 00:10:40;;;;;;;1.35;0.50;;;10.10;92.90;;;;;;2030330;29;20032;-96
2021/09/30 00:11:44;;;;;;;1.13;0.50;;;10.10;92.90;;;;;;2036494;29;20058;-96
2021/09/30 00:13:36;;;;;;;1.40;0.40;;;10.10;92.90;;;;;;2034991;29;20046;-96
2021/09/30 00:14:17;;;;;;;2.00;0.50;;;10.10;92.90;;;;;;2031582;29;20048;-96
2021/09/30 00:15:37;;;;;;;1.05;0.40;;;10.10;92.90;;;;;;2035838;29;20040;-96
2021/09/30 00:34:46;;;;;;;0.98;0.57;;;10.00;92.70;;;;;;2030386;29;20044;-96
2021/09/30 00:42:19;;;;;;;0.60;0.40;;;10.00;92.70;;;;;;2039861;29;20099;-95
2021/09/30 00:46:04;;;;;;;1.30;0.50;;;10.00;92.80;;;;;;2048630;29;20146;-95
2021/09/30 00:47:32;;;;;;;2.08;0.50;;;9.90;92.70;;;;;;2031783;29;20113;-95
2021/09/30 00:48:50;;;;;;;1.50;0.40;;;9.90;92.70;;;;;;2034553;29;20048;-95
2021/09/30 00:50:04;;;;;;;2.05;0.60;;;9.90;92.70;;;;;;2034083;29;20037;-95
2021/09/30 00:51:20;;;;;;;1.27;0.50;;;9.90;92.80;;;;;;2037694;29;20039;-95
2021/09/30 01:58:19;;;;;;;2.65;1.30;;;9.60;92.90;;;;;;2038755;29;20032;-96
2021/09/30 02:28:18;;;;;;;2.90;1.15;;;9.40;93.00;;;;;;2034929;29;20048;-96
2021/09/30 02:58:29;;;;;;;3.42;1.40;;;9.20;93.00;;;;;;2034185;29;20123;-96
2021/09/30 02:59:32;;;;;;;3.08;1.35;;;9.20;93.00;;;;;;2040263;29;20040;-96
2021/09/30 03:00:34;;;;;;;2.80;1.20;;;9.20;93.00;;;;;;2043807;29;20040;-96
2021/09/30 03:01:38;;;;;;;2.78;1.38;;;9.20;93.00;;;;;;2043897;29;20035;-96
2021/09/30 03:02:42;;;;;;;3.05;1.40;;;9.20;93.10;;;;;;2042041;29;20127;-96
2021/09/30 03:03:44;;;;;;;3.28;1.38;;;9.20;93.10;;;;;;2028564;29;20405;-96
2021/09/30 03:04:46;;;;;;;3.28;1.45;;;9.20;93.10;;;;;;2034786;29;20300;-96
2021/09/30 03:05:53;;;;;;;3.17;1.50;;;9.20;93.10;;;;;;2034280;29;20093;-96
2021/09/30 03:06:55;;;;;;;3.20;1.52;;;9.20;93.10;;;;;;2026300;29;20037;-96
2021/09/30 03:07:57;;;;;;;2.28;1.50;;;9.20;93.10;;;;;;2018269;29;20044;-96
2021/09/30 03:09:02;;;;;;;5.13;1.80;;;9.20;93.10;;;;;;2025552;29;20112;-96
2021/09/30 03:10:04;;;;;;;3.38;1.52;;;9.20;93.20;;;;;;2034051;29;20048;-96
2021/09/30 03:11:05;;;;;;;4.35;1.50;;;9.20;93.10;;;;;;2041084;29;20035;-95
2021/09/30 03:12:20;;;;;;;3.10;1.50;;;9.20;93.10;;;;;;2050118;29;20029;-96
2021/09/30 03:13:25;;;;;;;4.50;1.60;;;9.20;93.20;;;;;;2053018;28;20087;-95
2021/09/30 03:14:26;;;;;;;2.92;1.40;;;9.20;93.10;;;;;;2055906;28;20087;-95
2021/09/30 03:15:40;;;;;;;2.33;1.17;;;9.20;93.10;;;;;;2051673;29;20022;-95
2021/09/30 03:16:45;;;;;;;3.05;1.42;;;9.20;93.10;;;;;;2053115;29;20099;-95
2021/09/30 03:17:59;;;;;;;3.75;1.40;;;9.20;93.10;;;;;;2042582;29;20042;-95
2021/09/30 03:19:04;;;;;;;2.25;1.30;;;9.20;93.10;;;;;;2037283;29;20028;-96
2021/09/30 03:20:16;;;;;;;2.42;1.27;;;9.20;93.10;;;;;;2039736;29;20024;-95
2021/09/30 03:22:19;;;;;;;2.63;1.60;;;9.20;93.20;;;;;;2042302;29;20035;-96
2021/09/30 03:23:24;;;;;;;3.03;1.42;;;9.10;93.10;;;;;;2037322;29;20398;-96
2021/09/30 03:24:26;;;;;;;2.53;1.42;;;9.10;93.10;;;;;;2032653;29;20048;-96
2021/09/30 03:25:27;;;;;;;3.13;1.23;;;9.10;93.10;;;;;;2042485;29;20032;-95
2021/09/30 03:26:28;;;;;;;2.50;1.45;;;9.10;93.10;;;;;;2049146;29;20024;-96
2021/09/30 03:27:30;;;;;;;2.88;1.40;;;9.10;93.10;;;;;;2048701;29;20064;-95
2021/09/30 03:28:32;;;;;;;4.88;1.50;;;9.10;93.20;;;;;;2042521;29;20030;-95
2021/09/30 03:29:33;;;;;;;3.28;1.33;;;9.10;93.20;;;;;;2045964;29;20028;-95
2021/09/30 03:30:35;;;;;;;3.15;1.40;;;9.10;93.20;;;;;;2047178;29;20051;-95
2021/09/30 03:31:36;;;;;;;2.53;1.30;;;9.10;93.20;;;;;;2033860;29;20047;-95
2021/09/30 03:32:38;;;;;;;3.88;1.40;;;9.10;93.20;;;;;;2033699;29;20041;-95
2021/09/30 03:33:39;;;;;;;5.13;1.45;;;9.10;93.20;;;;;;2034849;29;20049;-95
2021/09/30 03:34:40;;;;;;;2.92;1.40;;;9.00;93.20;;;;;;2041857;29;20036;-96
2021/09/30 03:35:42;;;;;;;3.63;1.80;;;9.10;93.20;;;;;;2043198;29;20035;-96
2021/09/30 03:36:42;;;;;;;2.75;1.23;;;9.10;93.20;;;;;;2033708;29;20035;-95
2021/09/30 03:37:44;;;;;;;3.83;1.55;;;9.00;93.20;;;;;;2034670;29;20060;-96
2021/09/30 03:38:44;;;;;;;3.03;1.40;;;9.00;93.20;;;;;;2048622;29;20035;-95
2021/09/30 03:39:45;;;;;;;4.18;1.35;;;9.00;93.20;;;;;;2042592;29;20039;-96
2021/09/30 03:40:46;;;;;;;3.17;1.20;;;9.00;93.20;;;;;;2042121;29;20147;-96
2021/09/30 03:41:47;;;;;;;3.63;1.25;;;9.00;93.20;;;;;;2033478;29;20045;-96
2021/09/30 03:42:47;;;;;;;3.20;1.52;;;9.00;93.20;;;;;;2026501;29;20505;-95
2021/09/30 03:43:48;;;;;;;3.28;1.30;;;9.00;93.20;;;;;;2026945;29;20033;-95
2021/09/30 03:44:49;;;;;;;3.75;1.40;;;9.00;93.20;;;;;;2041744;29;20027;-95
2021/09/30 03:45:50;;;;;;;3.50;1.48;;;9.00;93.20;;;;;;2041944;29;20080;-94
2021/09/30 03:46:52;;;;;;;3.33;1.40;;;9.00;93.20;;;;;;2038090;29;20123;-96
2021/09/30 03:47:54;;;;;;;3.10;1.42;;;9.00;93.20;;;;;;2034858;29;20044;-96
2021/09/30 03:48:56;;;;;;;3.55;1.35;;;9.00;93.20;;;;;;2034844;29;20680;-96
2021/09/30 03:49:57;;;;;;;3.47;1.27;;;9.00;93.20;;;;;;2037977;29;20070;-96
2021/09/30 03:53:09;;;;;;;2.13;1.23;;;9.00;93.10;;;;;;2042138;29;20054;-96
2021/09/30 03:55:30;;;;;;;3.30;1.30;;;9.00;93.10;;;;;;2036359;29;20036;-96
2021/09/30 03:56:37;;;;;;;2.60;1.17;;;9.00;93.10;;;;;;2034288;29;20036;-96
2021/09/30 03:59:58;;;;;;;2.80;1.30;;;9.00;93.10;;;;;;2028534;29;20124;-95
2021/09/30 04:00:59;;;;;;;4.60;1.42;;;9.00;93.10;;;;;;2035340;29;20569;-95
2021/09/30 04:02:03;;;;;;;2.30;1.27;;;9.00;93.10;;;;;;2035262;29;20036;-96
2021/09/30 04:03:04;;;;;;;3.53;1.50;;;9.00;93.10;;;;;;2033845;29;20076;-96
2021/09/30 04:04:05;;;;;;;3.33;1.35;;;9.00;93.10;;;;;;2026011;29;20044;-94
2021/09/30 04:05:06;;;;;;;4.22;1.30;;;9.00;93.10;;;;;;2026424;29;20072;-95
2021/09/30 04:06:07;;;;;;;2.45;1.10;;;9.00;93.10;;;;;;2034431;29;20416;-96
2021/09/30 04:07:09;;;;;;;3.20;1.17;;;9.00;93.10;;;;;;2032553;29;20076;-95
2021/09/30 04:08:10;;;;;;;3.55;1.25;;;9.00;93.10;;;;;;2033249;29;20397;-95
2021/09/30 04:09:10;;;;;;;3.55;1.35;;;9.00;93.10;;;;;;2032980;29;20028;-96
2021/09/30 04:10:11;;;;;;;1.85;1.20;;;9.00;93.10;;;;;;2025659;29;20036;-95
2021/09/30 04:11:13;;;;;;;2.42;1.15;;;9.00;93.10;;;;;;2036270;29;20044;-96
2021/09/30 04:12:14;;;;;;;2.67;1.08;;;9.00;93.10;;;;;;2026345;29;20510;-95
2021/09/30 04:13:15;;;;;;;3.17;1.23;;;9.00;93.10;;;;;;2026392;29;20614;-96
2021/09/30 04:14:15;;;;;;;3.15;1.42;;;9.00;93.10;;;;;;2026463;29;20044;-96
2021/09/30 04:15:16;;;;;;;4.05;1.35;;;8.90;93.10;;;;;;2018635;29;20126;-96
2021/09/30 04:16:17;;;;;;;2.85;1.30;;;8.90;93.10;;;;;;2026337;29;20051;-96
2021/09/30 04:17:18;;;;;;;2.40;1.20;;;9.00;93.10;;;;;;2033070;29;20072;-95
2021/09/30 04:18:19;;;;;;;4.47;1.20;;;9.00;93.10;;;;;;2033100;29;20087;-95
2021/09/30 04:19:21;;;;;;;2.47;1.27;;;8.90;93.10;;;;;;2033711;29;20033;-96
2021/09/30 04:20:23;;;;;;;3.03;1.52;;;8.90;93.10;;;;;;2036165;29;20070;-96
2021/09/30 04:21:23;;;;;;;2.88;1.00;;;8.90;93.10;;;;;;2034218;29;20403;-96
2021/09/30 04:22:24;;;;;;;3.00;1.30;;;8.90;93.10;;;;;;2042072;29;20118;-96
2021/09/30 04:23:25;;;;;;;3.90;1.40;;;9.00;93.10;;;;;;2047423;29;20023;-96
2021/09/30 04:24:26;;;;;;;4.55;1.30;;;8.90;93.10;;;;;;2040101;29;20072;-96
2021/09/30 04:25:26;;;;;;;4.53;1.38;;;9.00;93.10;;;;;;2043185;29;20023;-95
2021/09/30 04:26:27;;;;;;;4.43;1.33;;;8.90;93.00;;;;;;2043186;29;20111;-96
2021/09/30 04:27:28;;;;;;;4.93;1.40;;;8.90;93.00;;;;;;2024904;29;20043;-96
2021/09/30 04:28:29;;;;;;;4.03;1.27;;;8.90;93.00;;;;;;2016306;29;20131;-96
2021/09/30 04:29:30;;;;;;;6.00;1.85;;;8.90;93.00;;;;;;2027987;29;20044;-96
2021/09/30 04:30:31;;;;;;;3.13;1.40;;;8.90;93.00;;;;;;2020395;29;20056;-95
2021/09/30 04:31:33;;;;;;;4.03;1.40;;;8.90;93.00;;;;;;2022346;29;20041;-94
2021/09/30 04:32:34;;;;;;;5.45;1.48;;;8.90;93.00;;;;;;2042552;29;20044;-95
2021/09/30 04:33:35;;;;;;;2.40;1.23;;;8.90;93.00;;;;;;2049831;29;20046;-95
2021/09/30 04:34:35;;;;;;;4.75;1.48;;;8.90;93.00;;;;;;2033937;29;20052;-96
2021/09/30 04:35:36;;;;;;;2.80;1.40;;;8.90;93.00;;;;;;2025581;29;20036;-96
2021/09/30 04:36:37;;;;;;;2.92;1.27;;;8.90;93.00;;;;;;2020158;29;20124;-96
2021/09/30 04:37:38;;;;;;;1.95;1.15;;;8.90;93.00;;;;;;2018450;29;20041;-96
2021/09/30 04:38:39;;;;;;;3.03;1.27;;;8.90;93.00;;;;;;2023315;29;20421;-96
2021/09/30 04:39:40;;;;;;;3.30;1.30;;;8.90;93.00;;;;;;2034882;29;20067;-96
2021/09/30 04:40:40;;;;;;;5.20;1.58;;;8.90;93.00;;;;;;2040078;29;20028;-96
2021/09/30 04:41:43;;;;;;;3.72;1.60;;;8.90;93.00;;;;;;2025348;29;20045;-96
2021/09/30 04:42:44;;;;;;;3.28;1.30;;;8.90;93.00;;;;;;2013667;29;20086;-95
2021/09/30 04:43:45;;;;;;;4.90;1.58;;;8.90;93.00;;;;;;2026544;29;20084;-96
2021/09/30 04:44:46;;;;;;;3.45;1.48;;;8.90;93.00;;;;;;2035027;29;20507;-95
2021/09/30 04:45:48;;;;;;;4.93;1.40;;;8.90;93.00;;;;;;2047726;29;20090;-94
2021/09/30 04:46:50;;;;;;;3.33;1.52;;;8.90;93.00;;;;;;2050477;29;20034;-95
2021/09/30 04:47:50;;;;;;;3.58;1.30;;;8.90;93.00;;;;;;2036496;29;20507;-96
2021/09/30 04:48:51;;;;;;;4.80;1.60;;;8.90;93.00;;;;;;2020107;29;20037;-95
2021/09/30 04:49:52;;;;;;;3.30;1.40;;;8.90;93.00;;;;;;2027455;29;20127;-96
2021/09/30 04:50:53;;;;;;;3.55;1.63;;;8.90;93.00;;;;;;2038317;29;20095;-96
2021/09/30 04:51:53;;;;;;;2.85;1.45;;;8.90;93.00;;;;;;2035015;29;20044;-94
2021/09/30 04:53:00;;;;;;;2.90;1.27;;;8.90;93.00;;;;;;2028897;29;20036;-94
2021/09/30 04:54:01;;;;;;;3.00;1.10;;;8.90;93.00;;;;;;2026340;29;20036;-95
2021/09/30 04:55:02;;;;;;;3.63;1.60;;;8.90;93.00;;;;;;2028369;29;20033;-95
2021/09/30 04:56:03;;;;;;;5.05;1.27;;;8.90;93.00;;;;;;2042551;29;20031;-96
2021/09/30 04:57:05;;;;;;;3.58;1.15;;;8.90;93.00;;;;;;2033355;29;20071;-95
2021/09/30 04:58:06;;;;;;;4.28;1.40;;;8.90;93.00;;;;;;2034569;29;20403;-95
2021/09/30 04:59:07;;;;;;;4.93;1.48;;;8.90;93.00;;;;;;2036743;29;20085;-96
2021/09/30 05:00:08;;;;;;;3.95;1.58;;;8.90;93.00;;;;;;2018509;29;20037;-95
2021/09/30 05:01:09;;;;;;;4.43;1.73;;;8.90;93.00;;;;;;2027550;29;20089;-95
2021/09/30 05:02:10;;;;;;;4.25;1.58;;;8.90;93.00;;;;;;2037588;29;20034;-96
2021/09/30 05:03:10;;;;;;;3.20;1.40;;;8.90;93.00;;;;;;2037215;29;20032;-95
2021/09/30 05:04:11;;;;;;;4.95;1.70;;;8.90;93.00;;;;;;2042525;29;20571;-95
2021/09/30 05:05:14;;;;;;;3.20;1.40;;;8.90;93.00;;;;;;2042033;29;20095;-95
2021/09/30 05:06:14;;;;;;;4.65;1.60;;;8.90;93.00;;;;;;2034003;29;20039;-95
2021/09/30 05:07:15;;;;;;;2.90;1.50;;;8.90;93.00;;;;;;2042276;29;20040;-96
2021/09/30 05:08:16;;;;;;;5.05;1.40;;;8.80;93.00;;;;;;2031376;29;20087;-95
2021/09/30 05:09:17;;;;;;;3.63;1.60;;;8.90;93.00;;;;;;2029317;29;20055;-95
2021/09/30 05:10:20;;;;;;;4.75;1.42;;;8.90;93.00;;;;;;2033749;29;20859;-95
2021/09/30 05:11:21;;;;;;;3.53;1.45;;;8.80;93.00;;;;;;2036553;29;20047;-96
2021/09/30 05:12:22;;;;;;;3.13;1.48;;;8.80;93.00;;;;;;2028379;29;20043;-96
2021/09/30 05:13:25;;;;;;;4.38;1.67;;;8.80;93.10;;;;;;2027916;29;20122;-96
2021/09/30 05:14:26;;;;;;;3.65;1.90;;;8.80;93.20;;;;;;2034880;29;20032;-96
2021/09/30 05:15:27;;;;;;;4.07;1.40;;;8.80;93.00;;;;;;2025885;29;20073;-95
2021/09/30 05:16:27;;;;;;;2.60;1.52;;;8.80;93.00;;;;;;2022542;29;20041;-96
2021/09/30 05:17:28;;;;;;;3.80;1.50;;;8.80;93.00;;;;;;2029121;29;20064;-95
2021/09/30 05:18:29;;;;;;;2.53;1.30;;;8.80;93.00;;;;;;2039569;29;20523;-96
2021/09/30 05:19:29;;;;;;;3.13;1.58;;;8.80;93.00;;;;;;2047634;29;20495;-95
2021/09/30 05:20:31;;;;;;;4.38;1.77;;;8.80;93.00;;;;;;2033422;29;20040;-96
2021/09/30 05:21:32;;;;;;;2.92;1.60;;;8.80;93.00;;;;;;2019522;29;20570;-95
2021/09/30 05:22:33;;;;;;;5.50;1.95;;;8.80;93.00;;;;;;2026858;29;20142;-96
2021/09/30 05:23:34;;;;;;;2.47;1.48;;;8.80;93.00;;;;;;2034828;29;20167;-96
2021/09/30 05:24:34;;;;;;;4.30;1.85;;;8.80;93.00;;;;;;2042808;29;20031;-96
2021/09/30 05:25:35;;;;;;;4.22;1.67;;;8.80;93.00;;;;;;2042648;29;20055;-96
2021/09/30 05:26:36;;;;;;;3.60;1.50;;;8.80;93.00;;;;;;2035513;29;20036;-96
2021/09/30 05:27:37;;;;;;;4.47;1.63;;;8.80;93.00;;;;;;2026627;29;20127;-95
2021/09/30 05:28:37;;;;;;;3.05;1.50;;;8.80;93.00;;;;;;2032197;29;20127;-96
2021/09/30 05:29:38;;;;;;;3.10;1.50;;;8.80;93.00;;;;;;2032033;29;20067;-96
2021/09/30 05:30:39;;;;;;;4.10;1.60;;;8.80;93.00;;;;;;2023367;29;20056;-95
2021/09/30 05:31:40;;;;;;;2.83;1.40;;;8.80;93.00;;;;;;2030032;29;20028;-96
2021/09/30 05:32:40;;;;;;;5.03;1.50;;;8.80;93.00;;;;;;2039619;29;20094;-95
2021/09/30 05:33:41;;;;;;;3.65;1.63;;;8.80;93.00;;;;;;2040077;29;20145;-95
2021/09/30 05:34:43;;;;;;;6.40;1.73;;;8.80;93.00;;;;;;2042038;29;20412;-96
2021/09/30 05:35:43;;;;;;;2.55;1.48;;;8.80;93.00;;;;;;2030848;29;20087;-96
2021/09/30 05:36:44;;;;;;;4.72;1.70;;;8.80;93.00;;;;;;2019288;29;20033;-96
2021/09/30 05:37:45;;;;;;;3.70;1.35;;;8.80;93.00;;;;;;2034318;29;20036;-95
2021/09/30 05:38:46;;;;;;;3.15;1.63;;;8.80;93.00;;;;;;2034389;29;20040;-96
2021/09/30 05:39:46;;;;;;;3.65;1.50;;;8.80;93.00;;;;;;2034491;29;20037;-95
2021/09/30 05:40:48;;;;;;;2.85;1.50;;;8.80;93.00;;;;;;2026271;29;20024;-95
2021/09/30 05:41:52;;;;;;;3.63;1.60;;;8.80;93.00;;;;;;2030852;29;20033;-96
2021/09/30 05:42:54;;;;;;;4.50;1.60;;;8.80;93.00;;;;;;2035099;29;20072;-95
2021/09/30 05:43:58;;;;;;;3.03;1.63;;;8.80;93.00;;;;;;2036911;29;20452;-96
2021/09/30 05:45:05;;;;;;;4.15;1.75;;;8.80;93.00;;;;;;2034850;29;20066;-96
2021/09/30 05:46:08;;;;;;;3.13;1.40;;;8.80;93.00;;;;;;2032888;29;20044;-96
2021/09/30 05:47:09;;;;;;;4.45;1.80;;;8.80;93.00;;;;;;2020133;29;20045;-96
2021/09/30 05:48:10;;;;;;;4.22;1.75;;;8.70;93.00;;;;;;2032764;29;20111;-95
2021/09/30 05:49:11;;;;;;;4.03;1.70;;;8.70;93.00;;;;;;2034525;29;20390;-96
2021/09/30 05:50:13;;;;;;;4.05;1.83;;;8.70;93.00;;;;;;2037014;29;20067;-95
2021/09/30 05:51:14;;;;;;;3.45;1.63;;;8.70;93.00;;;;;;2035326;29;20055;-96
2021/09/30 05:52:14;;;;;;;4.47;1.70;;;8.70;93.00;;;;;;2034382;29;20051;-95
2021/09/30 05:53:16;;;;;;;4.15;1.80;;;8.70;92.90;;;;;;2026217;29;20069;-95
2021/09/30 05:54:17;;;;;;;4.07;1.85;;;8.70;92.90;;;;;;2018363;29;20052;-95
2021/09/30 05:55:18;;;;;;;3.80;1.77;;;8.70;92.90;;;;;;2045074;29;20062;-95
2021/09/30 05:56:18;;;;;;;4.13;1.70;;;8.70;92.90;;;;;;2049715;29;20130;-95
2021/09/30 05:57:19;;;;;;;5.38;1.67;;;8.70;92.90;;;;;;2041894;29;20044;-95
2021/09/30 05:58:20;;;;;;;5.18;1.90;;;8.70;92.90;;;;;;2034054;29;20036;-95
2021/09/30 05:59:21;;;;;;;5.45;1.80;;;8.70;92.90;;;;;;2034091;29;20036;-96
2021/09/30 06:00:37;;;;;;;4.35;1.80;;;8.80;92.90;;;;;;2029842;29;20100;-95
2021/09/30 06:11:17;;;;;;;3.65;1.65;;;8.80;92.80;;;;;;2043155;29;20048;-95
2021/09/30 06:12:25;;;;;;;3.70;1.50;;;8.80;92.80;;;;;;2034289;29;20028;-95
2021/09/30 06:14:32;;;;;;;2.58;1.40;;;8.80;92.80;;;;;;2034080;29;20577;-96
2021/09/30 06:15:36;;;;;;;5.47;1.70;;;8.80;92.80;;;;;;2034709;29;20126;-95
2021/09/30 06:16:44;;;;;;;4.28;1.70;;;8.80;92.80;;;;;;2038887;29;20127;-95
2021/09/30 06:17:46;;;;;;;3.53;1.52;;;8.80;92.80;;;;;;2033461;29;20036;-95
2021/09/30 06:18:47;;;;;;;5.40;1.80;;;8.80;92.70;;;;;;2022551;29;20052;-95
2021/09/30 06:19:48;;;;;;;4.03;1.77;;;8.90;92.80;;;;;;2025964;29;20096;-94
2021/09/30 06:20:50;;;;;;;3.90;1.75;;;8.80;92.70;;;;;;2034781;29;20044;-95
2021/09/30 06:21:52;;;;;;;2.78;1.55;;;8.80;92.70;;;;;;2045734;29;20121;-96
2021/09/30 06:22:53;;;;;;;4.68;1.80;;;8.90;92.80;;;;;;2040278;29;20106;-96
2021/09/30 06:23:54;;;;;;;3.50;1.52;;;8.90;92.80;;;;;;2030215;29;20509;-95
2021/09/30 06:24:55;;;;;;;3.22;1.70;;;8.90;92.80;;;;;;2033083;29;20080;-96
2021/09/30 06:25:55;;;;;;;3.13;1.70;;;8.90;92.70;;;;;;2033202;29;20213;-95
2021/09/30 06:26:56;;;;;;;4.53;1.67;;;8.90;92.70;;;;;;2032528;29;20068;-96
2021/09/30 06:27:57;;;;;;;3.70;1.70;;;8.90;92.70;;;;;;2040451;29;20036;-95
2021/09/30 06:28:58;;;;;;;3.25;1.70;;;8.90;92.70;;;;;;2034334;29;20463;-95
2021/09/30 06:29:59;;;;;;;5.18;1.70;;;8.90;92.70;;;;;;2036509;29;20035;-96
2021/09/30 06:30:59;;;;;;;5.07;1.90;;;9.00;92.70;;;;;;2030562;29;20044;-96
2021/09/30 06:32:00;;;;;;;4.93;1.90;;;9.00;92.70;;;;;;2018242;29;20044;-95
2021/09/30 06:33:01;;;;;;;3.55;1.70;;;9.00;92.70;;;;;;2026423;29;20482;-96
2021/09/30 06:34:02;;;;;;;4.88;1.80;;;8.90;92.70;;;;;;2026041;29;20044;-95
2021/09/30 06:35:03;;;;;;;4.18;1.95;;;9.00;92.70;;;;;;2018721;29;20036;-95
2021/09/30 06:36:04;;;;;;;4.40;1.95;;;9.00;92.70;;;;;;2026313;29;20056;-96
2021/09/30 06:37:05;;;;;;;3.72;1.73;;;9.00;92.70;;;;;;2026308;29;20041;-95
2021/09/30 06:38:05;;;;;;;3.33;1.77;;;9.00;92.60;;;;;;2020633;29;20106;-96
2021/09/30 06:39:06;;;;;;;4.18;1.80;;;9.00;92.60;;;;;;2026304;29;20033;-94
2021/09/30 06:40:09;;;;;;;3.90;1.70;;;9.00;92.60;;;;;;2025403;29;20107;-95
2021/09/30 06:41:10;;;;;;;7.05;1.92;;;9.10;92.60;;;;;;2018327;29;20463;-96
2021/09/30 06:42:10;;;;;;;6.97;2.20;;;9.10;92.60;;;;;;2025755;29;20040;-95
2021/09/30 06:43:12;;;;;;;3.47;1.90;;;9.10;92.60;;;;;;2033406;29;20055;-95
2021/09/30 06:44:12;;;;;;;3.65;1.40;;;9.10;92.60;;;;;;2033605;29;20048;-96
2021/09/30 06:45:14;;;;;;;5.05;1.83;;;9.10;92.60;;;;;;2033923;29;20067;-95
2021/09/30 06:46:15;;;;;;;4.90;1.60;;;9.20;92.60;;;;;;2040405;29;20054;-95
2021/09/30 06:47:15;;;;;;;3.75;1.75;;;9.10;92.50;;;;;;2033814;29;20477;-95
2021/09/30 06:48:17;;;;;;;3.78;1.40;;;9.20;92.60;;;;;;2026039;29;20064;-95
2021/09/30 06:49:17;;;;;;;3.22;1.40;;;9.20;92.50;;;;;;2026192;29;20036;-95
2021/09/30 06:50:18;;;;;;;5.50;1.45;;;9.20;92.50;;;;;;2032845;29;20044;-94
2021/09/30 06:51:20;;;;;;;4.38;1.77;;;9.20;92.50;;;;;;2034248;29;20036;-96
2021/09/30 06:52:21;;;;;;;4.50;1.60;;;9.20;92.50;;;;;;2025921;29;20481;-95
2021/09/30 06:53:22;;;;;;;5.18;1.75;;;9.20;92.50;;;;;;2033248;29;20064;-96
2021/09/30 06:54:23;;;;;;;4.32;1.65;;;9.20;92.50;;;;;;2033983;29;20039;-95
2021/09/30 06:55:23;;;;;;;5.18;1.90;;;9.30;92.50;;;;;;2044149;29;20059;-95
2021/09/30 06:56:26;;;;;;;2.97;1.58;;;9.30;92.50;;;;;;2041790;29;20028;-95
2021/09/30 06:57:28;;;;;;;4.25;1.83;;;9.30;92.40;;;;;;2031818;29;20111;-96
2021/09/30 06:58:29;;;;;;;2.90;1.83;;;9.40;92.40;;;;;;2033384;29;20457;-95
2021/09/30 06:59:34;;;;;;;4.60;2.05;;;9.40;92.40;;;;;;2041811;29;20032;-95
2021/09/30 07:00:35;;;;;;;6.13;2.00;;;9.40;92.40;;;;;;2033933;29;20092;-96
2021/09/30 07:01:38;;;;;;;4.07;1.75;;;9.40;92.40;;;;;;2035437;29;23651;-96
2021/09/30 07:02:41;;;;;;;4.10;1.77;;;9.40;92.40;;;;;;2035222;29;20092;-95
2021/09/30 07:03:42;;;;;;;3.95;1.73;;;9.50;92.40;;;;;;2036779;29;20028;-95
2021/09/30 07:04:43;;;;;;;3.60;1.38;;;9.50;92.30;;;;;;2041649;29;20510;-96
2021/09/30 07:05:44;;;;;;;4.80;1.52;;;9.50;92.30;;;;;;2034750;29;20067;-96
2021/09/30 07:06:46;;;;;;;5.28;1.67;;;9.50;92.30;;;;;;2027906;29;20056;-95
2021/09/30 07:07:47;;;;;;;3.92;1.60;;;9.50;92.30;;;;;;2029039;29;20037;-95
2021/09/30 07:08:48;;;;;;;5.95;1.70;;;9.50;92.20;;;;;;2034740;29;20055;-95
2021/09/30 07:09:48;;;;;;;3.65;1.85;;;9.50;92.20;;;;;;2035797;29;20068;-95
2021/09/30 07:10:49;;;;;;;4.50;1.80;;;9.60;92.20;;;;;;2041168;28;20130;-96
2021/09/30 07:11:50;;;;;;;5.03;2.05;;;9.60;92.20;;;;;;2033558;29;20039;-95
2021/09/30 07:12:51;;;;;;;3.78;1.63;;;9.60;92.20;;;;;;2033858;29;20532;-95
2021/09/30 07:13:51;;;;;;;5.00;1.90;;;9.60;92.20;;;;;;2017955;29;20517;-95
2021/09/30 07:14:52;;;;;;;4.35;1.67;;;9.60;92.20;;;;;;2021946;29;20033;-96
2021/09/30 07:15:53;;;;;;;3.05;1.40;;;9.60;92.20;;;;;;2026780;29;20036;-95
2021/09/30 07:16:55;;;;;;;5.35;1.52;;;9.70;92.20;;;;;;2035478;29;20036;-93
2021/09/30 07:17:56;;;;;;;4.93;1.70;;;9.70;92.20;;;;;;2046184;28;20027;-96
2021/09/30 07:18:57;;;;;;;4.82;1.40;;;9.70;92.10;;;;;;2042749;29;20044;-96
2021/09/30 07:19:58;;;;;;;5.00;1.70;;;9.70;92.10;;;;;;2035498;29;20016;-94
2021/09/30 07:21:03;;;;;;;4.20;1.60;;;9.70;92.10;;;;;;2034948;29;20080;-96
2021/09/30 07:22:06;;;;;;;3.25;1.88;;;9.80;92.10;;;;;;2018863;29;20025;-95
2021/09/30 07:23:07;;;;;;;4.28;1.63;;;9.80;92.00;;;;;;2027053;29;20051;-96
2021/09/30 07:24:08;;;;;;;3.20;1.65;;;9.80;92.00;;;;;;2026847;29;20044;-95
2021/09/30 07:25:10;;;;;;;4.05;1.55;;;9.80;92.00;;;;;;2033324;29;20040;-95
2021/09/30 07:26:10;;;;;;;3.35;1.48;;;9.80;92.00;;;;;;2036200;29;20028;-95
2021/09/30 07:27:11;;;;;;;6.05;1.90;;;9.90;92.00;;;;;;2037414;29;20038;-95
2021/09/30 07:28:12;;;;;;;5.78;1.85;;;9.90;92.00;;;;;;2034161;29;20093;-96
2021/09/30 07:29:13;;;;;;;4.30;1.65;;;10.00;92.00;;;;;;2026326;29;20041;-95
2021/09/30 07:30:14;;;;;;;5.25;2.00;;;10.00;91.90;;;;;;2026303;29;20052;-96
2021/09/30 07:31:14;;;;;;;4.05;1.83;;;10.00;91.90;;;;;;2032869;29;20078;-96
2021/09/30 07:32:15;;;;;;;4.78;1.80;;;10.00;91.80;;;;;;2015571;29;20042;-95
2021/09/30 07:33:17;;;;;;;4.53;1.70;;;10.00;91.80;;;;;;2026365;29;20111;-95
2021/09/30 07:34:18;;;;;;;4.68;1.90;;;10.00;91.80;;;;;;2040968;29;20111;-95
2021/09/30 07:35:19;;;;;;;3.95;1.65;;;10.10;91.80;;;;;;2021379;29;20033;-96
2021/09/30 07:36:20;;;;;;;5.53;1.45;;;10.10;91.80;;;;;;2019666;29;20036;-95
2021/09/30 07:37:21;;;;;;;3.63;1.40;;;10.10;91.80;;;;;;2041298;29;20618;-94
2021/09/30 07:38:22;;;;;;;4.50;1.90;;;10.10;91.80;;;;;;2033982;29;20051;-95
2021/09/30 07:39:23;;;;;;;3.60;1.52;;;10.10;91.70;;;;;;2033046;29;20036;-96
2021/09/30 07:40:24;;;;;;;2.25;1.50;;;10.20;91.80;;;;;;2033859;29;20153;-95
2021/09/30 07:41:25;;;;;;;2.13;1.35;;;10.20;91.70;;;;;;2030326;29;20060;-95
2021/09/30 07:42:26;;;;;;;4.30;1.95;;;10.20;91.70;;;;;;2033669;29;20051;-96
2021/09/30 07:43:27;;;;;;;5.28;1.92;;;10.20;91.70;;;;;;2033664;29;20123;-95
2021/09/30 07:44:28;;;;;;;3.17;1.40;;;10.20;91.70;;;;;;2032096;29;20044;-95
2021/09/30 07:45:28;;;;;;;3.63;1.33;;;10.30;91.70;;;;;;2042541;29;20039;-96
2021/09/30 07:46:32;;;;;;;3.55;1.50;;;10.30;91.70;;;;;;2043093;29;20404;-95
2021/09/30 07:47:32;;;;;;;4.03;1.70;;;10.30;91.70;;;;;;2037127;29;20447;-96
2021/09/30 07:48:33;;;;;;;5.13;1.85;;;10.30;91.70;;;;;;2044349;29;20035;-96
2021/09/30 07:49:34;;;;;;;5.80;1.60;;;10.30;91.60;;;;;;2045153;29;20124;-95
2021/09/30 07:50:37;;;;;;;5.93;1.80;;;10.40;91.60;;;;;;2035682;29;20043;-96
2021/09/30 07:51:39;;;;;;;3.45;1.50;;;10.40;91.60;;;;;;2022224;29;20516;-96
2021/09/30 07:52:40;;;;;;;4.25;1.90;;;10.40;91.60;;;;;;2031962;29;20041;-95
2021/09/30 07:53:41;;;;;;;7.20;1.70;;;10.40;91.60;;;;;;2054482;29;20018;-96
2021/09/30 07:54:41;;;;;;;3.65;1.52;;;10.40;91.60;;;;;;2032639;29;20043;-95
2021/09/30 07:55:43;;;;;;;3.92;1.60;;;10.50;91.50;;;;;;2032255;29;20069;-95
2021/09/30 07:56:44;;;;;;;5.07;1.30;;;10.50;91.50;;;;;;2048364;29;20028;-96
2021/09/30 07:57:45;;;;;;;5.60;1.60;;;10.50;91.50;;;;;;2041229;29;20044;-95
2021/09/30 07:58:46;;;;;;;4.47;1.55;;;10.50;91.40;;;;;;2041388;29;20032;-95
2021/09/30 07:59:47;;;;;;;3.78;1.52;;;10.60;91.40;;;;;;2038145;29;20193;-96
2021/09/30 08:00:48;;;;;;;3.63;1.30;;;10.50;91.40;;;;;;2027709;29;20033;-95
2021/09/30 08:01:49;;;;;;;3.63;1.20;;;10.60;91.40;;;;;;2027587;29;20065;-95
2021/09/30 08:02:49;;;;;;;5.05;1.75;;;10.60;91.30;;;;;;2035738;29;20040;-95
2021/09/30 08:03:51;;;;;;;3.85;1.65;;;10.70;91.30;;;;;;2027307;29;20047;-96
2021/09/30 08:04:51;;;;;;;4.07;1.70;;;10.70;91.30;;;;;;2020889;29;20037;-95
2021/09/30 08:05:52;;;;;;;3.75;1.50;;;10.70;91.20;;;;;;2024022;29;20037;-96
2021/09/30 08:06:53;;;;;;;3.88;1.70;;;10.80;91.20;;;;;;2020011;29;20033;-96
2021/09/30 08:07:54;;;;;;;4.35;1.40;;;10.80;91.20;;;;;;2034714;29;20091;-95
2021/09/30 08:08:55;;;;;;;5.38;1.50;;;10.80;91.10;;;;;;2035941;29;20064;-95
2021/09/30 08:09:56;;;;;;;4.50;1.65;;;10.90;91.10;;;;;;2035678;29;20135;-95
2021/09/30 08:10:59;;;;;;;2.97;1.40;;;11.00;91.10;;;;;;2027277;29;20434;-96
2021/09/30 08:12:01;;;;;;;5.38;1.38;;;11.00;91.10;;;;;;2028082;29;20043;-94
2021/09/30 08:13:02;;;;;;;6.05;1.33;;;11.10;91.00;;;;;;2027889;29;20037;-96
2021/09/30 08:14:12;;;;;;;3.35;1.40;;;11.10;91.00;;;;;;2027121;29;20040;-95
2021/09/30 08:15:13;;;;;;;3.10;1.23;;;11.10;90.90;;;;;;2040666;29;20036;-96